50TS weather

Tj-Cj Private Heliport
San Antonio, Texas, United States

Public forecast

Using degrees Fahrenheit for public forecast. Weather courtesy of forecast.io.

Closest aviation weather report (METAR) to Tj-Cj Private Heliport

Closest report is Randolph Air Force Base, 4.9 nm (9.2 km) NNE. Retrieved 2019/11/14 15:21 UTC (0 seconds ago):

KRND 141521Z AUTO 04008KT 10SM -RA OVC005 06/05 A3024 RMK AO2 DZE20RAB20 SLP243

Closest aviation forecast (TAF) to Tj-Cj Private Heliport

Closest forecast is Randolph Air Force Base, 4.9 nm (9.2 km) NNE. Retrieved 2019/11/14 14:03 UTC (1 hour ago):

TAF KRND 141400Z 1414/1516 VRB06KT 8000 -RA BKN005 OVC010 QNH3015INS TEMPO 1414/1416 9000 -RA OVC010 BECMG 1417/1418 01009KT 9999 NSW SCT010 OVC020 QNH3023INS BECMG 1419/1420 03010G15KT 9999 BKN020 OVC040 QNH3025INS BECMG 1423/1424 01006KT 9999 BKN030 OVC080 QNH3030INS BECMG 1505/1506 34006KT 9999 FEW050 QNH3037INS TX08/1420Z TN03/1510Z